This is the latest recevied weather packets stored in our database for station/object OE-11208. If no packets are shown the sender has not sent any weather packets the latest 10 day(s).
| Time | Temp. | Humidity | Pressure | Rain* | Wind** | Luminosity | Snow |
|---|---|---|---|---|---|---|---|
| 1787892922 | 12.22° C | 96% | 1016.6 hPa | 0 mm | - | 7 W/m² | - |
| 1787892094 | 12.78° C | 97% | 1016.1 hPa | 0 mm | - | 0 W/m² | - |
| 1787891721 | 12.22° C | 96% | 1016.5 hPa | 0 mm | - | 0 W/m² | - |
| 1787891122 | 11.67° C | 96% | 1016.8 hPa | 0 mm | - | 0 W/m² | - |
| 1787890295 | 12.22° C | 96% | 1016.6 hPa | 0 mm | - | 0 W/m² | - |
| 1787889922 | 11.67° C | 95% | 1016.8 hPa | 0 mm | - | 0 W/m² | - |
| 1787889322 | 12.78° C | 96% | 1016.5 hPa | 0 mm | - | 0 W/m² | - |
| 1787888721 | 12.22° C | 95% | 1016.7 hPa | 0 mm | - | 0 W/m² | - |
| 1787888121 | 12.22° C | 95% | 1016.8 hPa | 0 mm | - | 0 W/m² | - |
| 1787887521 | 12.78° C | 96% | 1016.5 hPa | 0 mm | - | 0 W/m² | - |
| 1787886320 | 12.78° C | 96% | 1016.6 hPa | 0 mm | - | 0 W/m² | - |
| 1787885722 | 12.78° C | 96% | 1016.6 hPa | 0 mm | - | 0 W/m² | - |
| 1787884895 | 12.78° C | 96% | 1016.7 hPa | 0 mm | - | 0 W/m² | - |
| 1787884522 | 12.78° C | 95% | 1016.6 hPa | 0 mm | - | 0 W/m² | - |
| 1787883922 | 12.78° C | 96% | 1016.6 hPa | 0 mm | - | 0 W/m² | - |
| 1787883095 | 12.78° C | 95% | 1016.6 hPa | 0 mm | - | 0 W/m² | - |
| 1787882722 | 12.78° C | 93% | 1016.5 hPa | 0 mm | - | 0 W/m² | - |
| 1787882118 | 12.78° C | 95% | 1016.6 hPa | 0 mm | - | 0 W/m² | - |
| 1787881295 | 12.78° C | 95% | 1016.4 hPa | 0 mm | - | 0 W/m² | - |
| 1787880922 | 12.78° C | 95% | 1016.5 hPa | 0 mm | - | 0 W/m² | - |
| 1787880322 | 12.78° C | 94% | 1016.5 hPa | 0 mm | - | 0 W/m² | - |
| 1787879494 | 13.33° C | 95% | 1016.3 hPa | 0 mm | - | 0 W/m² | - |
| 1787879121 | 12.78° C | 94% | 1016.5 hPa | 0 mm | - | 0 W/m² | - |
| 1787878522 | 12.78° C | 95% | 1016.6 hPa | 0 mm | - | 0 W/m² | - |
| 1787877694 | 12.78° C | 94% | 1016.4 hPa | 0 mm | - | 0 W/m² | - |
* Rain latest hour (hover to see other rain measurements)
** Current wind speed in m/s (hover to see current wind gust speed)